createdAt,value
2024-04-19T00:00:54.303Z,99931.89
2024-04-19T00:03:42.218Z,99925.70
2024-04-19T00:06:10.570Z,99926.50
2024-04-19T00:08:38.222Z,99925.05
2024-04-19T00:11:05.950Z,99920.88
2024-04-19T00:13:33.779Z,99920.85
2024-04-19T00:16:01.468Z,99915.53
2024-04-19T00:18:29.346Z,99918.66
2024-04-19T00:20:57.368Z,99915.66
2024-04-19T00:23:25.431Z,99914.45
2024-04-19T00:25:54.956Z,99910.91
2024-04-19T00:28:40.825Z,99905.39
2024-04-19T00:31:09.239Z,99901.89
2024-04-19T00:33:37.472Z,99900.50
2024-04-19T00:36:05.495Z,99898.20
2024-04-19T00:38:33.361Z,99896.67
2024-04-19T00:41:01.158Z,99896.23
2024-04-19T00:43:28.857Z,99895.37
2024-04-19T00:45:56.947Z,99895.11
2024-04-19T00:48:26.392Z,99893.64
2024-04-19T00:50:59.379Z,99887.88
2024-04-19T00:53:34.254Z,99884.98
2024-04-19T00:56:21.124Z,99883.67
2024-04-19T00:58:48.929Z,99882.92
2024-04-19T01:01:17.579Z,99883.98
2024-04-19T01:03:45.440Z,99883.31
2024-04-19T01:06:13.086Z,99880.35
2024-04-19T01:08:40.905Z,99877.44
2024-04-19T01:11:28.704Z,99874.60
2024-04-19T01:13:56.365Z,99870.30
2024-04-19T01:16:23.976Z,99870.84
2024-04-19T01:18:54.359Z,99872.48
2024-04-19T01:21:23.176Z,99865.45
2024-04-19T01:23:54.664Z,99864.55
2024-04-19T01:26:22.647Z,99860.77
2024-04-19T01:28:50.317Z,99857.24
2024-04-19T01:31:18.091Z,99861.85
2024-04-19T01:33:45.883Z,99856.80
2024-04-19T01:36:13.546Z,99854.83
2024-04-19T01:38:50.215Z,99851.77
2024-04-19T01:41:17.913Z,99849.18
2024-04-19T01:43:45.689Z,99848.30
2024-04-19T01:46:13.326Z,99846.31
2024-04-19T01:48:40.935Z,99841.46
2024-04-19T01:51:08.622Z,99840.52
2024-04-19T01:53:36.427Z,99838.67
2024-04-19T01:56:04.322Z,99838.40
2024-04-19T01:58:40.945Z,99844.81
2024-04-19T02:01:09.115Z,99847.14
2024-04-19T02:03:40.703Z,99842.95
2024-04-19T02:06:09.501Z,99840.30
2024-04-19T02:08:37.269Z,99833.70
2024-04-19T02:11:05.625Z,99837.49
2024-04-19T02:13:33.675Z,99834.18
2024-04-19T02:16:01.583Z,99833.73
2024-04-19T02:18:29.403Z,99830.92
2024-04-19T02:20:59.280Z,99823.07
2024-04-19T02:23:36.130Z,99821.29
2024-04-19T02:26:07.633Z,99815.66
2024-04-19T02:28:59.557Z,99814.39
2024-04-19T02:31:27.458Z,99816.11
2024-04-19T02:33:55.325Z,99813.10
2024-04-19T02:36:23.239Z,99809.67
2024-04-19T02:38:50.883Z,99804.92
2024-04-19T02:41:18.534Z,99804.73
2024-04-19T02:43:47.324Z,99799.55
2024-04-19T02:46:18.225Z,99797.45
2024-04-19T02:48:47.471Z,99797.12
2024-04-19T02:51:15.214Z,99801.80
2024-04-19T02:53:43.808Z,99795.48
2024-04-19T02:56:11.705Z,99792.31
2024-04-19T02:58:40.837Z,99790.38
2024-04-19T03:01:08.571Z,99787.40
2024-04-19T03:03:36.453Z,99786.02
2024-04-19T03:06:04.846Z,99783.77
2024-04-19T03:08:32.565Z,99777.45
2024-04-19T03:11:06.778Z,99777.62
2024-04-19T03:13:34.521Z,99778.54
2024-04-19T03:16:09.614Z,99774.27
2024-04-19T03:18:43.453Z,99771.80
2024-04-19T03:21:11.390Z,99772.85
2024-04-19T03:23:39.199Z,99765.52
2024-04-19T03:26:07.083Z,99762.56
2024-04-19T03:28:34.796Z,99757.38
2024-04-19T03:31:02.367Z,99754.77
2024-04-19T03:33:30.186Z,99745.94
2024-04-19T03:35:58.281Z,99743.39
2024-04-19T03:38:26.402Z,99738.90
2024-04-19T03:40:55.368Z,99734.45
2024-04-19T03:43:24.733Z,99734.57
2024-04-19T03:45:52.492Z,99729.88
2024-04-19T03:48:20.218Z,99729.39
2024-04-19T03:50:48.102Z,99729.18
2024-04-19T03:53:15.896Z,99731.13
2024-04-19T03:55:43.516Z,99730.27
2024-04-19T03:58:11.158Z,99725.33
2024-04-19T04:00:42.385Z,99718.07
2024-04-19T04:03:10.199Z,99717.49
2024-04-19T04:05:40.619Z,99714.72
2024-04-19T04:08:08.589Z,99711.21
2024-04-19T04:10:36.626Z,99715.77
2024-04-19T04:13:04.544Z,99714.05
2024-04-19T04:15:32.913Z,99721.95
2024-04-19T04:18:02.872Z,99710.51
2024-04-19T04:20:30.642Z,99710.54
2024-04-19T04:22:58.224Z,99707.14
2024-04-19T04:25:25.833Z,99708.72
2024-04-19T04:27:53.487Z,99716.89
2024-04-19T04:30:21.136Z,99726.80
2024-04-19T04:32:48.781Z,99722.35
2024-04-19T04:35:16.607Z,99726.80
2024-04-19T04:37:44.190Z,99721.59
2024-04-19T04:40:11.956Z,99718.91
2024-04-19T04:42:40.090Z,99719.80
2024-04-19T04:45:08.058Z,99715.98
2024-04-19T04:47:36.171Z,99713.40
2024-04-19T04:50:04.007Z,99717.27
2024-04-19T04:52:32.337Z,99711.42
2024-04-19T04:55:00.040Z,99706.74
2024-04-19T04:57:27.741Z,99699.96
2024-04-19T04:59:55.414Z,99697.27
2024-04-19T05:02:23.084Z,99695.19
2024-04-19T05:04:51.961Z,99687.42
2024-04-19T05:07:23.860Z,99679.69
2024-04-19T05:09:52.723Z,99680.23
2024-04-19T05:12:20.522Z,99679.80
2024-04-19T05:14:48.169Z,99677.59
2024-04-19T05:17:16.051Z,99672.87
2024-04-19T05:19:43.725Z,99678.00
2024-04-19T05:22:11.520Z,99675.67
2024-04-19T05:24:39.200Z,99671.84
2024-04-19T05:27:06.847Z,99667.55
2024-04-19T05:29:34.422Z,99664.23
2024-04-19T05:32:02.081Z,99661.72
2024-04-19T05:34:30.236Z,99659.92
2024-04-19T05:36:58.628Z,99661.81
2024-04-19T05:39:26.291Z,99663.61
2024-04-19T05:41:53.882Z,99665.94
2024-04-19T05:44:21.531Z,99667.27
2024-04-19T05:46:49.418Z,99666.45
2024-04-19T05:49:17.117Z,99666.50
2024-04-19T05:51:44.824Z,99663.30
2024-04-19T05:54:12.587Z,99667.08
2024-04-19T05:56:40.239Z,99664.94
2024-04-19T05:59:08.114Z,99663.63
2024-04-19T06:01:35.827Z,99655.37
2024-04-19T06:04:03.647Z,99649.98
2024-04-19T06:06:31.290Z,99647.09
2024-04-19T06:08:59.081Z,99642.37
2024-04-19T06:11:27.809Z,99638.80
2024-04-19T06:13:56.011Z,99632.52
2024-04-19T06:16:23.771Z,99630.07
2024-04-19T06:18:51.574Z,99630.11
2024-04-19T06:21:19.388Z,99623.95
2024-04-19T06:23:47.038Z,99622.09
2024-04-19T06:26:14.664Z,99617.95
2024-04-19T06:28:43.710Z,99616.40
2024-04-19T06:31:13.332Z,99610.66
2024-04-19T06:33:41.518Z,99611.09
2024-04-19T06:36:10.416Z,99606.58
2024-04-19T06:38:40.436Z,99600.50
2024-04-19T06:41:09.412Z,99604.60
2024-04-19T06:43:37.092Z,99602.42
2024-04-19T06:46:04.863Z,99595.61
2024-04-19T06:48:32.729Z,99597.92
2024-04-19T06:51:01.136Z,99597.38
2024-04-19T06:53:28.868Z,99593.30
2024-04-19T06:55:56.461Z,99592.91
2024-04-19T06:58:24.248Z,99588.31
2024-04-19T07:01:06.040Z,99586.45
2024-04-19T07:03:41.382Z,99579.90
2024-04-19T07:06:20.012Z,99581.55
2024-04-19T07:08:54.854Z,99576.14
2024-04-19T07:11:22.662Z,99571.11
2024-04-19T07:13:50.958Z,99568.67
2024-04-19T07:16:18.703Z,99566.89
2024-04-19T07:18:47.287Z,99561.89
2024-04-19T07:21:15.203Z,99560.06
2024-04-19T07:23:42.995Z,99555.71
2024-04-19T07:26:10.801Z,99554.19
2024-04-19T07:28:38.539Z,99551.63
2024-04-19T07:31:06.269Z,99543.95
2024-04-19T07:33:33.955Z,99544.82
2024-04-19T07:36:01.601Z,99534.42
2024-04-19T07:38:29.352Z,99528.08
2024-04-19T07:41:04.103Z,99526.90
2024-04-19T07:43:31.886Z,99519.79
2024-04-19T07:45:59.536Z,99515.43
2024-04-19T07:48:28.520Z,99515.06
2024-04-19T07:50:56.419Z,99506.26
2024-04-19T07:53:24.052Z,99501.30
2024-04-19T07:55:51.639Z,99497.98
2024-04-19T07:58:23.932Z,99503.92
2024-04-19T08:00:51.812Z,99498.27
2024-04-19T08:03:19.530Z,99497.89
2024-04-19T08:05:47.575Z,99491.70
2024-04-19T08:08:15.294Z,99487.58
2024-04-19T08:10:42.978Z,99481.83
2024-04-19T08:13:10.616Z,99483.64
2024-04-19T08:15:38.891Z,99481.22
2024-04-19T08:18:06.842Z,99472.13
2024-04-19T08:20:34.580Z,99468.01
2024-04-19T08:23:02.396Z,99465.65
2024-04-19T08:25:29.973Z,99465.11
2024-04-19T08:27:57.801Z,99458.74
2024-04-19T08:30:26.209Z,99450.16
2024-04-19T08:32:53.852Z,99447.09
2024-04-19T08:35:21.476Z,99445.38
2024-04-19T08:37:49.460Z,99443.40
2024-04-19T08:40:17.151Z,99439.16
2024-04-19T08:42:45.444Z,99433.55
2024-04-19T08:45:14.543Z,99426.80
2024-04-19T08:47:43.708Z,99423.88
2024-04-19T08:50:11.751Z,99419.16
2024-04-19T08:52:59.480Z,99414.92
2024-04-19T08:55:28.829Z,99412.02
2024-04-19T08:57:56.661Z,99406.24
2024-04-19T09:00:24.420Z,99396.45
2024-04-19T09:02:52.885Z,99394.27
2024-04-19T09:05:20.523Z,99393.27
2024-04-19T09:07:48.485Z,99386.73
2024-04-19T09:10:16.090Z,99387.84
2024-04-19T09:12:43.751Z,99387.86
2024-04-19T09:15:11.377Z,99383.23
2024-04-19T09:17:39.723Z,99378.30
2024-04-19T09:20:07.868Z,99367.55
2024-04-19T09:22:35.593Z,99365.79
2024-04-19T09:25:03.308Z,99367.20
2024-04-19T09:27:31.208Z,99376.25
2024-04-19T09:30:02.179Z,99374.13
2024-04-19T09:32:30.847Z,99358.70
2024-04-19T09:34:58.659Z,99349.15
2024-04-19T09:37:27.502Z,99347.45
2024-04-19T09:39:55.207Z,99341.14
2024-04-19T09:42:25.911Z,99338.39
2024-04-19T09:44:53.919Z,99337.88
2024-04-19T09:47:22.791Z,99331.05
2024-04-19T09:49:51.697Z,99322.38
2024-04-19T09:52:20.914Z,99308.17
2024-04-19T09:55:05.625Z,99309.48
2024-04-19T09:57:35.594Z,99301.98
2024-04-19T10:00:04.694Z,99303.30
2024-04-19T10:02:40.243Z,99295.95
2024-04-19T10:05:08.277Z,99295.32
2024-04-19T10:07:37.989Z,99283.83
2024-04-19T10:10:06.432Z,99287.03
2024-04-19T10:12:34.773Z,99294.80
2024-04-19T10:15:02.465Z,99285.64
2024-04-19T10:17:30.327Z,99282.21
2024-04-19T10:19:58.464Z,99280.40
2024-04-19T10:22:30.109Z,99268.59
2024-04-19T10:25:01.624Z,99265.96
2024-04-19T10:27:30.503Z,99264.16
2024-04-19T10:29:59.925Z,99264.73
2024-04-19T10:32:27.588Z,99273.73
2024-04-19T10:34:55.217Z,99263.74
2024-04-19T10:37:22.978Z,99264.11
2024-04-19T10:39:50.678Z,99274.98
2024-04-19T10:42:24.999Z,99278.70
2024-04-19T10:44:52.801Z,99272.86
2024-04-19T10:47:21.991Z,99275.77
2024-04-19T10:49:49.794Z,99270.03
2024-04-19T10:52:23.613Z,99259.52
2024-04-19T10:54:52.471Z,99244.16
2024-04-19T10:57:20.160Z,99243.81
2024-04-19T10:59:47.820Z,99230.86
2024-04-19T11:02:17.249Z,99216.89
2024-04-19T11:04:45.461Z,99206.64
2024-04-19T11:07:13.274Z,99195.25
2024-04-19T11:09:40.985Z,99191.97
2024-04-19T11:12:09.962Z,99187.33
2024-04-19T11:14:37.538Z,99182.63
2024-04-19T11:17:05.288Z,99175.77
2024-04-19T11:19:34.489Z,99177.59
2024-04-19T11:22:02.527Z,99176.09
2024-04-19T11:24:31.387Z,99171.48
2024-04-19T11:26:59.182Z,99168.18
2024-04-19T11:29:27.061Z,99164.27
2024-04-19T11:31:55.258Z,99156.44
2024-04-19T11:34:31.588Z,99154.88
2024-04-19T11:37:05.983Z,99150.37
2024-04-19T11:39:34.958Z,99148.09
2024-04-19T11:42:02.927Z,99148.48
2024-04-19T11:44:30.769Z,99132.54
2024-04-19T11:47:08.208Z,99134.66
2024-04-19T11:49:35.871Z,99126.46
2024-04-19T11:52:03.749Z,99124.66
2024-04-19T11:54:32.676Z,99116.75
2024-04-19T11:57:00.893Z,99131.15
2024-04-19T11:59:28.635Z,99119.34
2024-04-19T12:01:57.078Z,99115.99
2024-04-19T12:04:24.939Z,99110.85
2024-04-19T12:06:52.914Z,99115.46
2024-04-19T12:09:20.759Z,99105.17
2024-04-19T12:12:19.742Z,99098.63
2024-04-19T12:15:23.213Z,99098.98
2024-04-19T12:17:27.225Z,99100.66
2024-04-19T12:20:00.717Z,99094.17
2024-04-19T12:22:34.190Z,99086.71
2024-04-19T12:25:04.547Z,99075.34
2024-04-19T12:27:33.064Z,99081.45
2024-04-19T12:30:00.966Z,99072.27
2024-04-19T12:32:29.162Z,99067.91
2024-04-19T12:34:56.754Z,99073.29
2024-04-19T12:37:24.426Z,99072.78
2024-04-19T12:39:52.276Z,99066.27
2024-04-19T12:42:19.975Z,99064.55
2024-04-19T12:44:50.875Z,99056.55
2024-04-19T12:47:18.825Z,99052.08
2024-04-19T12:49:46.584Z,99053.79
2024-04-19T12:52:14.323Z,99040.67
2024-04-19T12:54:41.994Z,99029.52
2024-04-19T12:57:09.724Z,99022.40
2024-04-19T12:59:37.455Z,99019.55
2024-04-19T13:02:07.237Z,99009.11
2024-04-19T13:04:35.022Z,99007.05
2024-04-19T13:07:02.702Z,99009.00
2024-04-19T13:09:30.385Z,99005.62
2024-04-19T13:11:58.271Z,99006.39
2024-04-19T13:14:26.004Z,99005.50
2024-04-19T13:16:53.878Z,98997.77
2024-04-19T13:19:21.672Z,99002.41
2024-04-19T13:21:49.856Z,99001.48
2024-04-19T13:24:19.720Z,98996.61
2024-04-19T13:26:47.754Z,98994.42
2024-04-19T13:29:15.387Z,98983.76
2024-04-19T13:31:45.910Z,98982.41
2024-04-19T13:34:16.516Z,98975.81
2024-04-19T13:36:44.200Z,98969.52
2024-04-19T13:39:11.866Z,98966.25
2024-04-19T13:41:40.444Z,98960.27
2024-04-19T13:44:09.278Z,98957.70
2024-04-19T13:46:37.135Z,98959.69
2024-04-19T13:49:04.945Z,98962.57
2024-04-19T13:51:33.094Z,98976.30
2024-04-19T13:54:00.752Z,98972.48
2024-04-19T13:56:31.844Z,98954.56
2024-04-19T13:58:59.741Z,98959.90
2024-04-19T14:01:31.728Z,98954.69
2024-04-19T14:03:59.673Z,98959.35
2024-04-19T14:06:28.268Z,98963.34
2024-04-19T14:08:56.054Z,98961.74
2024-04-19T14:11:24.856Z,98954.67
2024-04-19T14:13:52.573Z,98944.65
2024-04-19T14:16:24.188Z,98941.68
2024-04-19T14:18:54.219Z,98934.27
2024-04-19T14:21:22.500Z,98933.02
2024-04-19T14:23:50.121Z,98930.09
2024-04-19T14:26:19.538Z,98924.74
2024-04-19T14:28:47.517Z,98926.14
2024-04-19T14:31:15.090Z,98918.08
2024-04-19T14:33:44.636Z,98917.17
2024-04-19T14:36:12.663Z,98908.70
2024-04-19T14:38:40.304Z,98906.70
2024-04-19T14:41:08.229Z,98904.39
2024-04-19T14:43:38.591Z,98896.92
2024-04-19T14:46:08.520Z,98895.00
2024-04-19T14:48:36.475Z,98891.43
2024-04-19T14:51:05.163Z,98889.65
2024-04-19T14:53:32.759Z,98882.10
2024-04-19T14:56:01.465Z,98881.73
2024-04-19T14:58:29.285Z,98880.23
2024-04-19T15:00:59.002Z,98887.64
2024-04-19T15:03:26.807Z,98885.44
2024-04-19T15:05:57.345Z,98886.27
2024-04-19T15:08:25.118Z,98887.98
2024-04-19T15:10:53.651Z,98895.23
2024-04-19T15:13:22.911Z,98890.48
2024-04-19T15:15:50.618Z,98890.55
2024-04-19T15:18:18.258Z,98894.68
2024-04-19T15:20:45.918Z,98896.50
2024-04-19T15:23:13.690Z,98894.72
2024-04-19T15:25:43.835Z,98898.02
2024-04-19T15:28:13.001Z,98895.38
2024-04-19T15:30:43.869Z,98888.92
2024-04-19T15:33:11.583Z,98885.91
2024-04-19T15:35:39.492Z,98885.25
2024-04-19T15:38:10.911Z,98876.23
2024-04-19T15:40:39.791Z,98872.02
2024-04-19T15:43:07.954Z,98867.66
2024-04-19T15:45:35.616Z,98862.63
2024-04-19T15:48:03.520Z,98860.33
2024-04-19T15:50:31.511Z,98856.91
2024-04-19T15:52:59.611Z,98859.20
2024-04-19T15:55:40.120Z,98850.42
2024-04-19T15:58:08.060Z,98851.48
2024-04-19T16:00:38.584Z,98853.20
2024-04-19T16:03:06.340Z,98847.81
2024-04-19T16:05:38.191Z,98847.90
2024-04-19T16:08:05.997Z,98848.51
2024-04-19T16:10:33.654Z,98850.62
2024-04-19T16:13:01.405Z,98843.09
2024-04-19T16:15:29.757Z,98844.47
2024-04-19T16:17:57.861Z,98837.09
2024-04-19T16:20:25.570Z,98834.88
2024-04-19T16:22:53.194Z,98836.61
2024-04-19T16:25:21.064Z,98835.48
2024-04-19T16:27:48.873Z,98836.52
2024-04-19T16:30:18.197Z,98835.70
2024-04-19T16:32:46.297Z,98839.78
2024-04-19T16:35:14.146Z,98836.20
2024-04-19T16:37:46.017Z,98838.08
2024-04-19T16:40:13.656Z,98833.27
2024-04-19T16:42:41.631Z,98837.62
2024-04-19T16:45:09.358Z,98845.84
2024-04-19T16:47:37.189Z,98842.91
2024-04-19T16:50:05.801Z,98844.13
2024-04-19T16:52:33.367Z,98840.34
2024-04-19T16:55:01.065Z,98836.61
2024-04-19T16:57:28.736Z,98838.03
2024-04-19T16:59:56.435Z,98835.98
2024-04-19T17:02:24.215Z,98835.63
2024-04-19T17:04:52.259Z,98835.75
2024-04-19T17:07:19.897Z,98835.04
2024-04-19T17:09:47.663Z,98840.66
2024-04-19T17:12:15.367Z,98846.17
2024-04-19T17:14:43.572Z,98847.06
2024-04-19T17:17:11.835Z,98842.75
2024-04-19T17:19:39.533Z,98839.52
2024-04-19T17:22:07.164Z,98841.31
2024-04-19T17:24:34.833Z,98842.23
2024-04-19T17:27:02.467Z,98842.24
2024-04-19T17:29:30.061Z,98841.75
2024-04-19T17:31:58.408Z,98838.77
2024-04-19T17:34:26.675Z,98837.20
2024-04-19T17:36:59.444Z,98834.97
2024-04-19T17:39:27.178Z,98831.42
2024-04-19T17:41:54.878Z,98829.59
2024-04-19T17:44:22.558Z,98829.30
2024-04-19T17:46:51.329Z,98831.43
2024-04-19T17:49:21.688Z,98830.85
2024-04-19T17:51:50.533Z,98830.32
2024-04-19T17:54:19.626Z,98828.88
2024-04-19T17:56:47.276Z,98834.44
2024-04-19T17:59:15.990Z,98834.67
2024-04-19T18:01:43.661Z,98838.21
2024-04-19T18:04:11.444Z,98841.95
2024-04-19T18:06:40.476Z,98838.59
2024-04-19T18:09:09.517Z,98838.16
2024-04-19T18:11:37.223Z,98843.98
2024-04-19T18:14:04.779Z,98848.67
2024-04-19T18:16:32.712Z,98849.08
2024-04-19T18:19:00.481Z,98849.14
2024-04-19T18:21:28.264Z,98850.51
2024-04-19T18:23:57.336Z,98851.77
2024-04-19T18:26:25.870Z,98852.11
2024-04-19T18:28:53.765Z,98853.40
2024-04-19T18:31:21.424Z,98852.66
2024-04-19T18:34:00.120Z,98857.76
2024-04-19T18:36:28.059Z,98864.85
2024-04-19T18:38:55.606Z,98866.20
2024-04-19T18:41:25.121Z,98867.33
2024-04-19T18:43:52.726Z,98868.58
2024-04-19T18:46:21.308Z,98862.99
2024-04-19T18:48:49.080Z,98862.02
2024-04-19T18:51:16.727Z,98861.50
2024-04-19T18:53:47.890Z,98869.91
2024-04-19T18:56:15.599Z,98870.48
2024-04-19T18:58:44.590Z,98867.27
2024-04-19T19:01:15.794Z,98865.66
2024-04-19T19:03:47.663Z,98866.55
2024-04-19T19:06:16.995Z,98863.65
2024-04-19T19:08:44.667Z,98861.48
2024-04-19T19:11:15.451Z,98859.71
2024-04-19T19:13:43.697Z,98859.52
2024-04-19T19:16:11.832Z,98858.75
2024-04-19T19:18:39.846Z,98856.84
2024-04-19T19:21:08.730Z,98860.57
2024-04-19T19:23:36.474Z,98855.67
2024-04-19T19:26:07.781Z,98856.37
2024-04-19T19:28:35.394Z,98856.95
2024-04-19T19:31:03.162Z,98856.00
2024-04-19T19:33:33.697Z,98855.21
2024-04-19T19:36:04.201Z,98851.51
2024-04-19T19:38:38.035Z,98849.86
2024-04-19T19:41:05.893Z,98848.85
2024-04-19T19:43:37.474Z,98846.94
2024-04-19T19:46:07.050Z,98848.41
2024-04-19T19:48:35.303Z,98845.46
2024-04-19T19:51:16.463Z,98846.81
2024-04-19T19:53:45.102Z,98847.38
2024-04-19T19:56:17.188Z,98850.02
2024-04-19T19:58:45.142Z,98847.91
2024-04-19T20:01:31.270Z,98850.75
2024-04-19T20:04:33.718Z,98853.81
2024-04-19T20:07:03.076Z,98850.59
2024-04-19T20:09:30.728Z,98850.41
2024-04-19T20:11:58.385Z,98848.33
2024-04-19T20:14:26.946Z,98847.16
2024-04-19T20:16:54.906Z,98846.84
2024-04-19T20:19:22.703Z,98849.40
2024-04-19T20:21:50.345Z,98851.70
2024-04-19T20:24:17.912Z,98849.96
2024-04-19T20:26:45.669Z,98845.55
2024-04-19T20:29:15.582Z,98846.04
2024-04-19T20:35:01.584Z,98844.84
2024-04-19T20:37:29.450Z,98845.40
2024-04-19T20:39:57.167Z,98846.05
2024-04-19T20:42:24.856Z,98846.27
2024-04-19T20:44:52.447Z,98849.30
2024-04-19T20:47:20.115Z,98847.90
2024-04-19T20:49:47.757Z,98848.42
2024-04-19T20:52:15.439Z,98849.61
2024-04-19T20:54:43.119Z,98848.38
2024-04-19T20:57:10.926Z,98844.65
2024-04-19T20:59:38.543Z,98844.21
2024-04-19T21:02:06.640Z,98846.41
2024-04-19T21:04:36.106Z,98849.82
2024-04-19T21:07:03.777Z,98850.08
2024-04-19T21:09:31.485Z,98846.99
2024-04-19T21:11:59.344Z,98843.35
2024-04-19T21:14:27.008Z,98849.19
2024-04-19T21:16:54.662Z,98851.35
2024-04-19T21:19:22.456Z,98851.74
2024-04-19T21:21:50.205Z,98850.04
2024-04-19T21:24:17.959Z,98849.80
2024-04-19T21:26:45.544Z,98844.40
2024-04-19T21:29:13.401Z,98843.55
2024-04-19T21:31:40.998Z,98842.58
2024-04-19T21:34:09.705Z,98843.08
2024-04-19T21:36:40.601Z,98842.02
2024-04-19T21:39:08.545Z,98844.45
2024-04-19T21:41:36.169Z,98846.02
2024-04-19T21:44:03.827Z,98842.36
2024-04-19T21:46:31.985Z,98841.23
2024-04-19T21:48:59.694Z,98843.59
2024-04-19T21:51:27.366Z,98842.21
2024-04-19T21:53:55.022Z,98842.88
2024-04-19T21:56:23.107Z,98844.83
2024-04-19T21:58:51.036Z,98849.91
2024-04-19T22:01:18.736Z,98853.73
2024-04-19T22:03:46.481Z,98858.23
2024-04-19T22:06:14.754Z,98853.40
2024-04-19T22:08:42.499Z,98854.96
2024-04-19T22:11:10.308Z,98855.94
2024-04-19T22:13:38.369Z,98856.94
2024-04-19T22:16:06.960Z,98857.73
2024-04-19T22:18:36.374Z,98860.81
2024-04-19T22:21:08.711Z,98861.16
2024-04-19T22:23:36.301Z,98861.63
2024-04-19T22:26:07.613Z,98865.52
2024-04-19T22:28:36.512Z,98866.70
2024-04-19T22:31:07.531Z,98865.60
2024-04-19T22:33:35.703Z,98866.02
2024-04-19T22:36:09.304Z,98864.40
2024-04-19T22:38:38.127Z,98863.61
2024-04-19T22:41:06.074Z,98862.84
2024-04-19T22:43:47.904Z,98861.75
2024-04-19T22:46:15.597Z,98862.22
2024-04-19T22:48:43.200Z,98861.92
2024-04-19T22:51:10.982Z,98866.48
2024-04-19T22:53:38.595Z,98865.75
2024-04-19T22:56:06.461Z,98864.66
2024-04-19T22:58:34.123Z,98864.23
2024-04-19T23:01:07.480Z,98864.16
2024-04-19T23:03:35.387Z,98866.69
2024-04-19T23:06:10.528Z,98865.89
2024-04-19T23:08:38.207Z,98862.90
2024-04-19T23:11:06.019Z,98860.91
2024-04-19T23:14:02.198Z,98859.12
2024-04-19T23:16:29.815Z,98857.02
2024-04-19T23:18:58.330Z,98855.98
2024-04-19T23:21:26.029Z,98857.61
2024-04-19T23:23:53.736Z,98857.46
2024-04-19T23:26:21.432Z,98857.80
2024-04-19T23:28:49.117Z,98858.20
2024-04-19T23:31:18.657Z,98861.48
2024-04-19T23:33:46.434Z,98861.52
2024-04-19T23:36:14.054Z,98858.61
2024-04-19T23:38:41.687Z,98860.89
2024-04-19T23:41:09.948Z,98859.47
2024-04-19T23:43:37.539Z,98859.53
2024-04-19T23:46:05.252Z,98858.02
2024-04-19T23:48:33.041Z,98856.86
2024-04-19T23:51:00.601Z,98855.02
2024-04-19T23:53:28.228Z,98853.25
2024-04-19T23:55:55.833Z,98855.20
2024-04-19T23:58:23.424Z,98857.08
